Terminal Aerodrome Forecast
Issued by NWS

Home | Current Version | Previous Version | Text Only | Print | Product List | Glossary On
Versions: 1 2 3 4 5 6 7 8 9 10 11
663
FTUS46 KSTO 241735
TAFSAC
TAF
KSAC 241735Z 2418/2518 20008KT P6SM BKN080
     FM250600 18004KT P6SM SCT150=

USA.gov is the U.S. government's official web portal to all federal, state and local government web resources and services.